sensor_id;sensor_type;location;lat;lon;timestamp;P1;durP1;ratioP1;P2;durP2;ratioP2
61911;SDS011;49973;52.084;5.412;2023-03-20T00:02:07;19.00;;;7.17;;
61911;SDS011;49973;52.084;5.412;2023-03-20T00:04:44;13.87;;;7.17;;
61911;SDS011;49973;52.084;5.412;2023-03-20T00:07:13;13.50;;;6.70;;
61911;SDS011;49973;52.084;5.412;2023-03-20T00:09:41;16.07;;;6.77;;
61911;SDS011;49973;52.084;5.412;2023-03-20T00:12:10;21.93;;;7.50;;
61911;SDS011;49973;52.084;5.412;2023-03-20T00:14:43;18.23;;;7.87;;
61911;SDS011;49973;52.084;5.412;2023-03-20T00:17:12;17.57;;;8.10;;
61911;SDS011;49973;52.084;5.412;2023-03-20T00:19:45;23.07;;;9.07;;
61911;SDS011;49973;52.084;5.412;2023-03-20T00:22:14;20.03;;;6.93;;
61911;SDS011;49973;52.084;5.412;2023-03-20T00:24:43;16.07;;;7.23;;
61911;SDS011;49973;52.084;5.412;2023-03-20T00:27:12;17.73;;;7.53;;
61911;SDS011;49973;52.084;5.412;2023-03-20T00:29:43;16.97;;;7.83;;
61911;SDS011;49973;52.084;5.412;2023-03-20T00:32:13;18.00;;;8.50;;
61911;SDS011;49973;52.084;5.412;2023-03-20T00:34:42;18.77;;;8.80;;
61911;SDS011;49973;52.084;5.412;2023-03-20T00:37:12;19.80;;;9.03;;
61911;SDS011;49973;52.084;5.412;2023-03-20T00:39:40;17.00;;;8.17;;
61911;SDS011;49973;52.084;5.412;2023-03-20T00:42:11;21.87;;;8.63;;
61911;SDS011;49973;52.084;5.412;2023-03-20T00:44:49;16.43;;;8.47;;
61911;SDS011;49973;52.084;5.412;2023-03-20T00:47:23;16.40;;;9.17;;
61911;SDS011;49973;52.084;5.412;2023-03-20T00:49:53;18.63;;;7.73;;
61911;SDS011;49973;52.084;5.412;2023-03-20T00:52:24;17.50;;;7.93;;
61911;SDS011;49973;52.084;5.412;2023-03-20T00:54:52;19.27;;;8.00;;
61911;SDS011;49973;52.084;5.412;2023-03-20T00:57:21;16.13;;;8.00;;
61911;SDS011;49973;52.084;5.412;2023-03-20T00:59:55;27.03;;;7.77;;
61911;SDS011;49973;52.084;5.412;2023-03-20T01:02:27;17.83;;;7.87;;
61911;SDS011;49973;52.084;5.412;2023-03-20T01:04:58;16.30;;;7.87;;
61911;SDS011;49973;52.084;5.412;2023-03-20T01:07:27;16.63;;;6.90;;
61911;SDS011;49973;52.084;5.412;2023-03-20T01:09:55;15.53;;;6.40;;
61911;SDS011;49973;52.084;5.412;2023-03-20T01:12:24;13.47;;;7.00;;
61911;SDS011;49973;52.084;5.412;2023-03-20T01:14:55;14.67;;;7.63;;
61911;SDS011;49973;52.084;5.412;2023-03-20T01:17:25;13.67;;;6.23;;
61911;SDS011;49973;52.084;5.412;2023-03-20T01:19:54;14.13;;;6.50;;
61911;SDS011;49973;52.084;5.412;2023-03-20T01:22:23;9.23;;;5.23;;
61911;SDS011;49973;52.084;5.412;2023-03-20T01:24:52;8.87;;;5.13;;
61911;SDS011;49973;52.084;5.412;2023-03-20T01:27:20;11.33;;;5.13;;
61911;SDS011;49973;52.084;5.412;2023-03-20T01:29:49;13.43;;;4.87;;
61911;SDS011;49973;52.084;5.412;2023-03-20T01:32:19;8.13;;;4.13;;
61911;SDS011;49973;52.084;5.412;2023-03-20T01:34:49;11.23;;;4.80;;
61911;SDS011;49973;52.084;5.412;2023-03-20T01:37:21;17.60;;;4.47;;
61911;SDS011;49973;52.084;5.412;2023-03-20T01:39:52;11.90;;;4.10;;
61911;SDS011;49973;52.084;5.412;2023-03-20T01:42:22;11.63;;;4.33;;
61911;SDS011;49973;52.084;5.412;2023-03-20T01:44:51;10.90;;;4.43;;
61911;SDS011;49973;52.084;5.412;2023-03-20T01:47:22;9.63;;;4.03;;
61911;SDS011;49973;52.084;5.412;2023-03-20T01:52:50;10.73;;;3.80;;
61911;SDS011;49973;52.084;5.412;2023-03-20T01:55:22;7.70;;;3.70;;
61911;SDS011;49973;52.084;5.412;2023-03-20T01:57:57;8.00;;;3.57;;
61911;SDS011;49973;52.084;5.412;2023-03-20T02:00:32;11.83;;;3.77;;
61911;SDS011;49973;52.084;5.412;2023-03-20T02:03:04;13.43;;;4.03;;
61911;SDS011;49973;52.084;5.412;2023-03-20T02:05:54;8.95;;;4.30;;
61911;SDS011;49973;52.084;5.412;2023-03-20T02:08:31;9.90;;;4.37;;
61911;SDS011;49973;52.084;5.412;2023-03-20T02:11:04;10.77;;;3.60;;
61911;SDS011;49973;52.084;5.412;2023-03-20T02:13:33;5.87;;;3.60;;
61911;SDS011;49973;52.084;5.412;2023-03-20T02:16:04;11.87;;;4.40;;
61911;SDS011;49973;52.084;5.412;2023-03-20T02:18:50;15.13;;;4.00;;
61911;SDS011;49973;52.084;5.412;2023-03-20T02:21:31;9.37;;;3.90;;
61911;SDS011;49973;52.084;5.412;2023-03-20T02:27:19;7.10;;;4.27;;
61911;SDS011;49973;52.084;5.412;2023-03-20T02:30:17;12.70;;;5.27;;
61911;SDS011;49973;52.084;5.412;2023-03-20T02:33:10;7.27;;;3.70;;
61911;SDS011;49973;52.084;5.412;2023-03-20T02:39:18;10.40;;;3.97;;
61911;SDS011;49973;52.084;5.412;2023-03-20T02:42:05;8.20;;;4.67;;
61911;SDS011;49973;52.084;5.412;2023-03-20T02:44:37;8.30;;;4.50;;
61911;SDS011;49973;52.084;5.412;2023-03-20T02:47:12;14.20;;;4.23;;
61911;SDS011;49973;52.084;5.412;2023-03-20T02:49:49;8.80;;;4.47;;
61911;SDS011;49973;52.084;5.412;2023-03-20T02:52:27;11.73;;;4.20;;
61911;SDS011;49973;52.084;5.412;2023-03-20T02:55:05;9.03;;;4.60;;
61911;SDS011;49973;52.084;5.412;2023-03-20T02:57:43;11.00;;;4.87;;
61911;SDS011;49973;52.084;5.412;2023-03-20T03:00:21;13.37;;;5.43;;
61911;SDS011;49973;52.084;5.412;2023-03-20T03:02:59;10.03;;;6.00;;
61911;SDS011;49973;52.084;5.412;2023-03-20T03:05:34;17.23;;;7.33;;
61911;SDS011;49973;52.084;5.412;2023-03-20T03:08:05;17.63;;;7.63;;
61911;SDS011;49973;52.084;5.412;2023-03-20T03:10:41;20.43;;;7.97;;
61911;SDS011;49973;52.084;5.412;2023-03-20T03:13:14;15.37;;;8.73;;
61911;SDS011;49973;52.084;5.412;2023-03-20T03:15:46;20.07;;;9.17;;
61911;SDS011;49973;52.084;5.412;2023-03-20T03:18:19;17.57;;;7.83;;
61911;SDS011;49973;52.084;5.412;2023-03-20T03:20:51;20.63;;;8.70;;
61911;SDS011;49973;52.084;5.412;2023-03-20T03:23:26;22.40;;;8.87;;
61911;SDS011;49973;52.084;5.412;2023-03-20T03:25:58;16.63;;;8.73;;
61911;SDS011;49973;52.084;5.412;2023-03-20T03:28:30;25.10;;;8.93;;
61911;SDS011;49973;52.084;5.412;2023-03-20T03:31:04;16.07;;;8.30;;
61911;SDS011;49973;52.084;5.412;2023-03-20T03:33:35;22.43;;;8.97;;
61911;SDS011;49973;52.084;5.412;2023-03-20T03:36:08;26.60;;;9.63;;
61911;SDS011;49973;52.084;5.412;2023-03-20T03:38:42;27.43;;;9.33;;
61911;SDS011;49973;52.084;5.412;2023-03-20T03:41:18;25.70;;;8.87;;
61911;SDS011;49973;52.084;5.412;2023-03-20T03:43:53;27.17;;;9.30;;
61911;SDS011;49973;52.084;5.412;2023-03-20T03:46:31;20.70;;;8.30;;
61911;SDS011;49973;52.084;5.412;2023-03-20T03:49:11;20.93;;;8.77;;
61911;SDS011;49973;52.084;5.412;2023-03-20T03:51:43;23.80;;;9.43;;
61911;SDS011;49973;52.084;5.412;2023-03-20T03:54:16;22.20;;;9.13;;
61911;SDS011;49973;52.084;5.412;2023-03-20T03:57:08;18.33;;;8.20;;
61911;SDS011;49973;52.084;5.412;2023-03-20T03:59:39;24.07;;;9.30;;
61911;SDS011;49973;52.084;5.412;2023-03-20T04:02:11;28.87;;;9.97;;
61911;SDS011;49973;52.084;5.412;2023-03-20T04:04:42;22.20;;;10.10;;
61911;SDS011;49973;52.084;5.412;2023-03-20T04:07:12;21.23;;;10.10;;
61911;SDS011;49973;52.084;5.412;2023-03-20T04:09:41;24.83;;;11.43;;
61911;SDS011;49973;52.084;5.412;2023-03-20T04:12:17;23.23;;;9.27;;
61911;SDS011;49973;52.084;5.412;2023-03-20T04:15:00;20.10;;;9.80;;
61911;SDS011;49973;52.084;5.412;2023-03-20T04:17:31;22.83;;;10.60;;
61911;SDS011;49973;52.084;5.412;2023-03-20T04:20:00;20.80;;;9.40;;
61911;SDS011;49973;52.084;5.412;2023-03-20T04:22:30;21.67;;;9.20;;
61911;SDS011;49973;52.084;5.412;2023-03-20T04:25:06;23.17;;;9.80;;
61911;SDS011;49973;52.084;5.412;2023-03-20T04:27:38;24.33;;;9.90;;
61911;SDS011;49973;52.084;5.412;2023-03-20T04:30:13;20.47;;;9.30;;
61911;SDS011;49973;52.084;5.412;2023-03-20T04:33:00;21.53;;;8.17;;
61911;SDS011;49973;52.084;5.412;2023-03-20T04:35:37;24.33;;;9.50;;
61911;SDS011;49973;52.084;5.412;2023-03-20T04:38:11;19.43;;;9.17;;
61911;SDS011;49973;52.084;5.412;2023-03-20T04:40:40;19.80;;;9.33;;
61911;SDS011;49973;52.084;5.412;2023-03-20T04:43:11;21.80;;;9.53;;
61911;SDS011;49973;52.084;5.412;2023-03-20T04:45:40;24.23;;;10.50;;
61911;SDS011;49973;52.084;5.412;2023-03-20T04:48:09;20.13;;;10.33;;
61911;SDS011;49973;52.084;5.412;2023-03-20T04:50:38;21.37;;;9.40;;
61911;SDS011;49973;52.084;5.412;2023-03-20T04:53:07;23.00;;;10.37;;
61911;SDS011;49973;52.084;5.412;2023-03-20T04:55:35;20.20;;;10.63;;
61911;SDS011;49973;52.084;5.412;2023-03-20T04:58:04;24.03;;;10.00;;
61911;SDS011;49973;52.084;5.412;2023-03-20T05:00:34;19.00;;;10.30;;
61911;SDS011;49973;52.084;5.412;2023-03-20T05:03:02;21.13;;;10.73;;
61911;SDS011;49973;52.084;5.412;2023-03-20T05:05:31;22.73;;;9.87;;
61911;SDS011;49973;52.084;5.412;2023-03-20T05:08:04;26.37;;;11.13;;
61911;SDS011;49973;52.084;5.412;2023-03-20T05:10:35;19.23;;;9.60;;
61911;SDS011;49973;52.084;5.412;2023-03-20T05:13:27;16.07;;;8.93;;
61911;SDS011;49973;52.084;5.412;2023-03-20T05:16:20;18.83;;;10.53;;
61911;SDS011;49973;52.084;5.412;2023-03-20T05:19:00;22.50;;;10.27;;
61911;SDS011;49973;52.084;5.412;2023-03-20T05:21:43;25.00;;;10.37;;
61911;SDS011;49973;52.084;5.412;2023-03-20T05:24:25;22.47;;;9.50;;
61911;SDS011;49973;52.084;5.412;2023-03-20T05:27:00;19.80;;;10.00;;
61911;SDS011;49973;52.084;5.412;2023-03-20T05:29:47;16.27;;;8.80;;
61911;SDS011;49973;52.084;5.412;2023-03-20T05:32:33;19.97;;;10.20;;
61911;SDS011;49973;52.084;5.412;2023-03-20T05:35:38;20.90;;;10.87;;
61911;SDS011;49973;52.084;5.412;2023-03-20T05:38:17;18.87;;;9.33;;
61911;SDS011;49973;52.084;5.412;2023-03-20T05:41:07;17.90;;;9.33;;
61911;SDS011;49973;52.084;5.412;2023-03-20T05:43:58;23.80;;;9.43;;
61911;SDS011;49973;52.084;5.412;2023-03-20T05:46:45;18.93;;;9.83;;
61911;SDS011;49973;52.084;5.412;2023-03-20T05:49:41;19.57;;;9.40;;
61911;SDS011;49973;52.084;5.412;2023-03-20T05:52:31;18.27;;;9.63;;
61911;SDS011;49973;52.084;5.412;2023-03-20T05:55:16;18.90;;;10.07;;
61911;SDS011;49973;52.084;5.412;2023-03-20T05:58:11;22.23;;;9.50;;
61911;SDS011;49973;52.084;5.412;2023-03-20T06:01:06;16.00;;;9.37;;
61911;SDS011;49973;52.084;5.412;2023-03-20T06:03:52;17.90;;;8.00;;
61911;SDS011;49973;52.084;5.412;2023-03-20T06:06:43;20.67;;;9.97;;
61911;SDS011;49973;52.084;5.412;2023-03-20T06:09:11;23.60;;;9.87;;
61911;SDS011;49973;52.084;5.412;2023-03-20T06:11:40;16.17;;;9.33;;
61911;SDS011;49973;52.084;5.412;2023-03-20T06:14:09;26.43;;;9.80;;
61911;SDS011;49973;52.084;5.412;2023-03-20T06:16:41;21.10;;;10.13;;
61911;SDS011;49973;52.084;5.412;2023-03-20T06:19:10;19.20;;;9.30;;
61911;SDS011;49973;52.084;5.412;2023-03-20T06:21:40;21.87;;;8.87;;
61911;SDS011;49973;52.084;5.412;2023-03-20T06:24:15;15.27;;;8.40;;
61911;SDS011;49973;52.084;5.412;2023-03-20T06:26:43;23.37;;;10.07;;
61911;SDS011;49973;52.084;5.412;2023-03-20T06:29:13;13.60;;;8.40;;
61911;SDS011;49973;52.084;5.412;2023-03-20T06:31:42;16.93;;;8.60;;
61911;SDS011;49973;52.084;5.412;2023-03-20T06:34:21;18.37;;;8.83;;
61911;SDS011;49973;52.084;5.412;2023-03-20T06:36:49;21.03;;;9.40;;
61911;SDS011;49973;52.084;5.412;2023-03-20T06:39:22;17.97;;;9.00;;
61911;SDS011;49973;52.084;5.412;2023-03-20T06:41:51;21.00;;;9.43;;
61911;SDS011;49973;52.084;5.412;2023-03-20T06:44:22;16.57;;;9.27;;
61911;SDS011;49973;52.084;5.412;2023-03-20T06:47:21;18.03;;;9.03;;
61911;SDS011;49973;52.084;5.412;2023-03-20T06:49:50;19.60;;;9.40;;
61911;SDS011;49973;52.084;5.412;2023-03-20T06:52:20;19.93;;;8.47;;
61911;SDS011;49973;52.084;5.412;2023-03-20T06:55:09;13.77;;;8.13;;
61911;SDS011;49973;52.084;5.412;2023-03-20T06:57:38;18.27;;;8.83;;
61911;SDS011;49973;52.084;5.412;2023-03-20T07:00:07;18.07;;;9.37;;
61911;SDS011;49973;52.084;5.412;2023-03-20T07:02:37;22.87;;;9.17;;
61911;SDS011;49973;52.084;5.412;2023-03-20T07:05:07;20.47;;;8.57;;
61911;SDS011;49973;52.084;5.412;2023-03-20T07:07:37;19.33;;;9.57;;
61911;SDS011;49973;52.084;5.412;2023-03-20T07:10:06;17.93;;;8.93;;
61911;SDS011;49973;52.084;5.412;2023-03-20T07:12:37;21.80;;;8.77;;
61911;SDS011;49973;52.084;5.412;2023-03-20T07:15:07;13.83;;;7.97;;
61911;SDS011;49973;52.084;5.412;2023-03-20T07:17:37;20.87;;;8.90;;
61911;SDS011;49973;52.084;5.412;2023-03-20T07:20:07;20.97;;;8.33;;
61911;SDS011;49973;52.084;5.412;2023-03-20T07:22:37;19.80;;;8.63;;
61911;SDS011;49973;52.084;5.412;2023-03-20T07:25:21;15.43;;;7.60;;
61911;SDS011;49973;52.084;5.412;2023-03-20T07:28:07;14.40;;;7.87;;
61911;SDS011;49973;52.084;5.412;2023-03-20T07:30:39;16.30;;;7.20;;
61911;SDS011;49973;52.084;5.412;2023-03-20T07:33:09;17.97;;;8.13;;
61911;SDS011;49973;52.084;5.412;2023-03-20T07:35:38;14.87;;;7.53;;
61911;SDS011;49973;52.084;5.412;2023-03-20T07:38:07;17.23;;;8.20;;
61911;SDS011;49973;52.084;5.412;2023-03-20T07:40:46;14.00;;;7.97;;
61911;SDS011;49973;52.084;5.412;2023-03-20T07:43:16;15.47;;;7.57;;
61911;SDS011;49973;52.084;5.412;2023-03-20T07:46:08;10.27;;;6.70;;
61911;SDS011;49973;52.084;5.412;2023-03-20T07:48:37;23.57;;;8.20;;
61911;SDS011;49973;52.084;5.412;2023-03-20T07:51:06;12.07;;;6.93;;
61911;SDS011;49973;52.084;5.412;2023-03-20T07:53:35;20.57;;;7.73;;
61911;SDS011;49973;52.084;5.412;2023-03-20T07:56:04;17.23;;;6.70;;
61911;SDS011;49973;52.084;5.412;2023-03-20T07:58:34;20.30;;;8.07;;
61911;SDS011;49973;52.084;5.412;2023-03-20T08:01:03;13.47;;;7.47;;
61911;SDS011;49973;52.084;5.412;2023-03-20T08:03:32;11.17;;;6.40;;
61911;SDS011;49973;52.084;5.412;2023-03-20T08:06:01;14.63;;;7.23;;
61911;SDS011;49973;52.084;5.412;2023-03-20T08:08:32;18.10;;;7.07;;
61911;SDS011;49973;52.084;5.412;2023-03-20T08:11:01;11.03;;;6.60;;
61911;SDS011;49973;52.084;5.412;2023-03-20T08:13:30;14.30;;;7.43;;
61911;SDS011;49973;52.084;5.412;2023-03-20T08:16:00;20.83;;;6.20;;
61911;SDS011;49973;52.084;5.412;2023-03-20T08:18:28;16.90;;;6.53;;
61911;SDS011;49973;52.084;5.412;2023-03-20T08:20:57;14.17;;;5.67;;
61911;SDS011;49973;52.084;5.412;2023-03-20T08:23:25;16.20;;;6.20;;
61911;SDS011;49973;52.084;5.412;2023-03-20T08:25:55;12.70;;;5.73;;
61911;SDS011;49973;52.084;5.412;2023-03-20T08:28:23;15.87;;;5.83;;
61911;SDS011;49973;52.084;5.412;2023-03-20T08:31:13;13.17;;;5.53;;
61911;SDS011;49973;52.084;5.412;2023-03-20T08:33:43;20.43;;;6.37;;
61911;SDS011;49973;52.084;5.412;2023-03-20T08:36:12;11.50;;;5.53;;
61911;SDS011;49973;52.084;5.412;2023-03-20T08:38:42;12.27;;;5.50;;
61911;SDS011;49973;52.084;5.412;2023-03-20T08:41:11;14.80;;;5.10;;
61911;SDS011;49973;52.084;5.412;2023-03-20T08:43:40;8.77;;;5.07;;
61911;SDS011;49973;52.084;5.412;2023-03-20T08:46:09;14.70;;;5.33;;
61911;SDS011;49973;52.084;5.412;2023-03-20T08:48:39;9.17;;;4.40;;
61911;SDS011;49973;52.084;5.412;2023-03-20T08:51:07;10.70;;;5.10;;
61911;SDS011;49973;52.084;5.412;2023-03-20T08:53:36;8.97;;;5.47;;
61911;SDS011;49973;52.084;5.412;2023-03-20T08:56:05;16.13;;;5.30;;
61911;SDS011;49973;52.084;5.412;2023-03-20T08:58:34;11.23;;;4.77;;
61911;SDS011;49973;52.084;5.412;2023-03-20T09:01:03;11.97;;;5.53;;
61911;SDS011;49973;52.084;5.412;2023-03-20T09:03:33;10.87;;;5.10;;
61911;SDS011;49973;52.084;5.412;2023-03-20T09:06:05;21.97;;;5.87;;
61911;SDS011;49973;52.084;5.412;2023-03-20T09:08:35;11.97;;;4.77;;
61911;SDS011;49973;52.084;5.412;2023-03-20T09:11:04;15.60;;;5.43;;
61911;SDS011;49973;52.084;5.412;2023-03-20T09:13:33;9.07;;;5.00;;
61911;SDS011;49973;52.084;5.412;2023-03-20T09:16:02;18.73;;;6.10;;
61911;SDS011;49973;52.084;5.412;2023-03-20T09:18:32;14.30;;;5.77;;
61911;SDS011;49973;52.084;5.412;2023-03-20T09:21:00;15.00;;;5.63;;
61911;SDS011;49973;52.084;5.412;2023-03-20T09:23:31;19.47;;;6.13;;
61911;SDS011;49973;52.084;5.412;2023-03-20T09:25:59;15.30;;;5.43;;
61911;SDS011;49973;52.084;5.412;2023-03-20T09:28:28;12.40;;;5.63;;
61911;SDS011;49973;52.084;5.412;2023-03-20T09:30:57;12.67;;;6.07;;
61911;SDS011;49973;52.084;5.412;2023-03-20T09:33:26;16.97;;;5.60;;
61911;SDS011;49973;52.084;5.412;2023-03-20T09:35:55;9.00;;;5.33;;
61911;SDS011;49973;52.084;5.412;2023-03-20T09:38:23;9.17;;;4.10;;
61911;SDS011;49973;52.084;5.412;2023-03-20T09:40:54;10.77;;;4.77;;
61911;SDS011;49973;52.084;5.412;2023-03-20T09:43:27;10.47;;;5.90;;
61911;SDS011;49973;52.084;5.412;2023-03-20T09:46:08;7.60;;;4.67;;
61911;SDS011;49973;52.084;5.412;2023-03-20T09:48:46;9.80;;;4.87;;
61911;SDS011;49973;52.084;5.412;2023-03-20T09:51:23;10.33;;;5.17;;
61911;SDS011;49973;52.084;5.412;2023-03-20T09:53:58;10.37;;;4.77;;
61911;SDS011;49973;52.084;5.412;2023-03-20T09:56:32;15.57;;;5.00;;
61911;SDS011;49973;52.084;5.412;2023-03-20T09:59:01;9.93;;;4.63;;
61911;SDS011;49973;52.084;5.412;2023-03-20T10:01:35;15.03;;;4.77;;
61911;SDS011;49973;52.084;5.412;2023-03-20T10:04:11;7.87;;;4.47;;
61911;SDS011;49973;52.084;5.412;2023-03-20T10:06:40;10.33;;;4.60;;
61911;SDS011;49973;52.084;5.412;2023-03-20T10:09:11;14.80;;;4.47;;
61911;SDS011;49973;52.084;5.412;2023-03-20T10:14:46;13.33;;;4.80;;
61911;SDS011;49973;52.084;5.412;2023-03-20T10:17:26;9.83;;;4.67;;
61911;SDS011;49973;52.084;5.412;2023-03-20T10:20:11;9.73;;;4.13;;
61911;SDS011;49973;52.084;5.412;2023-03-20T10:22:41;8.93;;;4.00;;
61911;SDS011;49973;52.084;5.412;2023-03-20T10:25:25;9.80;;;3.67;;
61911;SDS011;49973;52.084;5.412;2023-03-20T10:27:59;5.63;;;3.03;;
61911;SDS011;49973;52.084;5.412;2023-03-20T10:30:32;18.17;;;3.40;;
61911;SDS011;49973;52.084;5.412;2023-03-20T10:33:11;8.03;;;4.33;;
61911;SDS011;49973;52.084;5.412;2023-03-20T10:35:57;7.10;;;3.70;;
61911;SDS011;49973;52.084;5.412;2023-03-20T10:38:37;7.97;;;4.23;;
61911;SDS011;49973;52.084;5.412;2023-03-20T10:41:12;8.77;;;4.47;;
61911;SDS011;49973;52.084;5.412;2023-03-20T10:43:46;9.67;;;3.90;;
61911;SDS011;49973;52.084;5.412;2023-03-20T10:46:21;11.07;;;4.17;;
61911;SDS011;49973;52.084;5.412;2023-03-20T10:48:55;12.77;;;4.00;;
61911;SDS011;49973;52.084;5.412;2023-03-20T10:51:32;9.03;;;4.43;;
61911;SDS011;49973;52.084;5.412;2023-03-20T10:54:06;11.87;;;3.97;;
61911;SDS011;49973;52.084;5.412;2023-03-20T10:56:49;10.27;;;3.83;;
61911;SDS011;49973;52.084;5.412;2023-03-20T10:59:23;13.00;;;5.10;;
61911;SDS011;49973;52.084;5.412;2023-03-20T11:01:55;13.93;;;4.67;;
61911;SDS011;49973;52.084;5.412;2023-03-20T11:04:23;11.57;;;5.13;;
61911;SDS011;49973;52.084;5.412;2023-03-20T11:06:54;9.90;;;4.20;;
61911;SDS011;49973;52.084;5.412;2023-03-20T11:09:29;8.70;;;5.03;;
61911;SDS011;49973;52.084;5.412;2023-03-20T11:12:00;15.20;;;5.37;;
61911;SDS011;49973;52.084;5.412;2023-03-20T11:14:32;16.27;;;5.30;;
61911;SDS011;49973;52.084;5.412;2023-03-20T11:17:04;9.70;;;5.13;;
61911;SDS011;49973;52.084;5.412;2023-03-20T11:19:34;13.87;;;5.83;;
61911;SDS011;49973;52.084;5.412;2023-03-20T11:22:06;13.93;;;5.07;;
61911;SDS011;49973;52.084;5.412;2023-03-20T11:24:51;12.20;;;5.40;;
61911;SDS011;49973;52.084;5.412;2023-03-20T11:27:24;10.93;;;4.83;;
61911;SDS011;49973;52.084;5.412;2023-03-20T11:29:54;14.03;;;5.90;;
61911;SDS011;49973;52.084;5.412;2023-03-20T11:32:26;21.33;;;6.87;;
61911;SDS011;49973;52.084;5.412;2023-03-20T11:35:08;11.40;;;5.93;;
61911;SDS011;49973;52.084;5.412;2023-03-20T11:37:44;12.87;;;6.23;;
61911;SDS011;49973;52.084;5.412;2023-03-20T11:40:14;14.83;;;5.73;;
61911;SDS011;49973;52.084;5.412;2023-03-20T11:42:51;18.97;;;6.77;;
61911;SDS011;49973;52.084;5.412;2023-03-20T11:45:22;13.47;;;5.97;;
61911;SDS011;49973;52.084;5.412;2023-03-20T11:47:51;10.53;;;6.27;;
61911;SDS011;49973;52.084;5.412;2023-03-20T11:50:26;18.50;;;6.77;;
61911;SDS011;49973;52.084;5.412;2023-03-20T11:53:00;21.90;;;7.30;;
61911;SDS011;49973;52.084;5.412;2023-03-20T11:55:30;16.60;;;7.37;;
61911;SDS011;49973;52.084;5.412;2023-03-20T11:58:01;14.90;;;7.53;;
61911;SDS011;49973;52.084;5.412;2023-03-20T12:00:36;13.13;;;7.50;;
61911;SDS011;49973;52.084;5.412;2023-03-20T12:06:14;14.67;;;6.67;;
61911;SDS011;49973;52.084;5.412;2023-03-20T12:08:45;16.50;;;7.13;;
61911;SDS011;49973;52.084;5.412;2023-03-20T12:11:22;17.53;;;8.93;;
61911;SDS011;49973;52.084;5.412;2023-03-20T12:14:07;17.80;;;6.97;;
61911;SDS011;49973;52.084;5.412;2023-03-20T12:16:45;13.73;;;7.30;;
61911;SDS011;49973;52.084;5.412;2023-03-20T12:19:19;13.27;;;7.30;;
61911;SDS011;49973;52.084;5.412;2023-03-20T12:21:53;14.47;;;7.70;;
61911;SDS011;49973;52.084;5.412;2023-03-20T12:24:28;12.40;;;6.93;;
61911;SDS011;49973;52.084;5.412;2023-03-20T12:27:13;15.70;;;7.43;;
61911;SDS011;49973;52.084;5.412;2023-03-20T12:29:49;16.97;;;8.63;;
61911;SDS011;49973;52.084;5.412;2023-03-20T12:32:22;12.80;;;6.80;;
61911;SDS011;49973;52.084;5.412;2023-03-20T12:34:55;10.20;;;7.20;;
61911;SDS011;49973;52.084;5.412;2023-03-20T12:37:26;15.80;;;7.70;;
61911;SDS011;49973;52.084;5.412;2023-03-20T12:39:56;16.47;;;8.13;;
61911;SDS011;49973;52.084;5.412;2023-03-20T12:42:30;24.80;;;8.77;;
61911;SDS011;49973;52.084;5.412;2023-03-20T12:45:09;14.37;;;8.87;;
61911;SDS011;49973;52.084;5.412;2023-03-20T12:47:48;12.40;;;8.30;;
61911;SDS011;49973;52.084;5.412;2023-03-20T12:50:33;20.53;;;8.10;;
61911;SDS011;49973;52.084;5.412;2023-03-20T12:53:20;18.13;;;9.20;;
61911;SDS011;49973;52.084;5.412;2023-03-20T12:56:05;22.93;;;9.00;;
61911;SDS011;49973;52.084;5.412;2023-03-20T12:58:43;19.40;;;8.83;;
61911;SDS011;49973;52.084;5.412;2023-03-20T13:01:15;19.20;;;8.37;;
61911;SDS011;49973;52.084;5.412;2023-03-20T13:04:01;14.93;;;7.27;;
61911;SDS011;49973;52.084;5.412;2023-03-20T13:06:49;13.17;;;8.77;;
61911;SDS011;49973;52.084;5.412;2023-03-20T13:09:26;14.77;;;7.47;;
61911;SDS011;49973;52.084;5.412;2023-03-20T13:12:06;19.47;;;8.83;;
61911;SDS011;49973;52.084;5.412;2023-03-20T13:14:44;22.97;;;9.67;;
61911;SDS011;49973;52.084;5.412;2023-03-20T13:17:20;15.23;;;7.70;;
61911;SDS011;49973;52.084;5.412;2023-03-20T13:19:57;25.47;;;10.37;;
61911;SDS011;49973;52.084;5.412;2023-03-20T13:22:45;21.20;;;10.27;;
61911;SDS011;49973;52.084;5.412;2023-03-20T13:25:24;19.23;;;10.00;;
61911;SDS011;49973;52.084;5.412;2023-03-20T13:28:10;20.20;;;10.00;;
61911;SDS011;49973;52.084;5.412;2023-03-20T13:30:43;21.43;;;9.10;;
61911;SDS011;49973;52.084;5.412;2023-03-20T13:33:21;22.33;;;9.73;;
61911;SDS011;49973;52.084;5.412;2023-03-20T13:36:01;18.93;;;8.60;;
61911;SDS011;49973;52.084;5.412;2023-03-20T13:38:42;19.13;;;9.50;;
61911;SDS011;49973;52.084;5.412;2023-03-20T13:41:14;26.40;;;10.40;;
61911;SDS011;49973;52.084;5.412;2023-03-20T13:43:44;19.97;;;10.97;;
61911;SDS011;49973;52.084;5.412;2023-03-20T13:46:16;19.60;;;9.23;;
61911;SDS011;49973;52.084;5.412;2023-03-20T13:48:47;18.10;;;9.70;;
61911;SDS011;49973;52.084;5.412;2023-03-20T13:51:20;21.03;;;9.30;;
61911;SDS011;49973;52.084;5.412;2023-03-20T13:53:56;15.37;;;9.27;;
61911;SDS011;49973;52.084;5.412;2023-03-20T13:56:34;19.23;;;8.57;;
61911;SDS011;49973;52.084;5.412;2023-03-20T14:02:24;19.30;;;9.63;;
61911;SDS011;49973;52.084;5.412;2023-03-20T14:05:02;20.97;;;11.13;;
61911;SDS011;49973;52.084;5.412;2023-03-20T14:07:35;24.13;;;10.53;;
61911;SDS011;49973;52.084;5.412;2023-03-20T14:13:09;17.57;;;8.93;;
61911;SDS011;49973;52.084;5.412;2023-03-20T14:15:44;23.97;;;10.90;;
61911;SDS011;49973;52.084;5.412;2023-03-20T14:18:18;17.53;;;9.60;;
61911;SDS011;49973;52.084;5.412;2023-03-20T14:20:51;17.03;;;10.17;;
61911;SDS011;49973;52.084;5.412;2023-03-20T14:23:31;23.90;;;9.77;;
61911;SDS011;49973;52.084;5.412;2023-03-20T14:26:07;22.23;;;10.43;;
61911;SDS011;49973;52.084;5.412;2023-03-20T14:28:44;19.13;;;9.33;;
61911;SDS011;49973;52.084;5.412;2023-03-20T14:31:20;20.93;;;9.37;;
61911;SDS011;49973;52.084;5.412;2023-03-20T14:33:59;20.23;;;9.40;;
61911;SDS011;49973;52.084;5.412;2023-03-20T14:36:48;30.17;;;10.43;;
61911;SDS011;49973;52.084;5.412;2023-03-20T14:39:23;17.93;;;9.87;;
61911;SDS011;49973;52.084;5.412;2023-03-20T14:42:15;23.03;;;9.37;;
61911;SDS011;49973;52.084;5.412;2023-03-20T14:45:01;25.30;;;10.97;;
61911;SDS011;49973;52.084;5.412;2023-03-20T14:47:52;20.23;;;11.30;;
61911;SDS011;49973;52.084;5.412;2023-03-20T14:50:29;24.37;;;10.77;;
61911;SDS011;49973;52.084;5.412;2023-03-20T14:53:04;20.50;;;10.30;;
61911;SDS011;49973;52.084;5.412;2023-03-20T14:55:49;24.90;;;10.07;;
61911;SDS011;49973;52.084;5.412;2023-03-20T15:01:17;24.60;;;10.80;;
61911;SDS011;49973;52.084;5.412;2023-03-20T15:03:55;17.53;;;11.70;;
61911;SDS011;49973;52.084;5.412;2023-03-20T15:06:27;19.57;;;11.30;;
61911;SDS011;49973;52.084;5.412;2023-03-20T15:08:57;22.77;;;12.23;;
61911;SDS011;49973;52.084;5.412;2023-03-20T15:11:29;24.57;;;12.23;;
61911;SDS011;49973;52.084;5.412;2023-03-20T15:13:58;27.40;;;13.60;;
61911;SDS011;49973;52.084;5.412;2023-03-20T15:16:30;26.27;;;11.53;;
61911;SDS011;49973;52.084;5.412;2023-03-20T15:19:03;26.20;;;12.53;;
61911;SDS011;49973;52.084;5.412;2023-03-20T15:21:35;24.73;;;13.23;;
61911;SDS011;49973;52.084;5.412;2023-03-20T15:24:06;22.47;;;10.53;;
61911;SDS011;49973;52.084;5.412;2023-03-20T15:26:44;19.53;;;11.43;;
61911;SDS011;49973;52.084;5.412;2023-03-20T15:29:15;26.63;;;10.87;;
61911;SDS011;49973;52.084;5.412;2023-03-20T15:31:45;20.00;;;11.37;;
61911;SDS011;49973;52.084;5.412;2023-03-20T15:34:38;20.90;;;10.70;;
61911;SDS011;49973;52.084;5.412;2023-03-20T15:37:10;20.87;;;9.90;;
61911;SDS011;49973;52.084;5.412;2023-03-20T15:39:42;13.30;;;9.80;;
61911;SDS011;49973;52.084;5.412;2023-03-20T15:42:16;17.80;;;9.57;;